Terminal Aerodrome Forecast
Issued by NWS

Home | Current Version | Previous Version | Text Only | Print | Product List | Glossary On
Versions: 1 2 3 4 5 6 7 8 9 10 11 12 13 14 15 16 17 18 19 20 21 22
428
FTUS43 KABR 241120
TAFATY
TAF
KATY 241120Z 2412/2512 16004KT P6SM BKN200
     FM241400 15008KT P6SM SCT200
     FM241800 16012KT P6SM BKN250
     FM250500 15013KT P6SM SCT200 WS020/18040KT=

USA.gov is the U.S. government's official web portal to all federal, state and local government web resources and services.